Time;durP1;ratioP1;P1;durP2;ratioP2;P2;SDS_P1;SDS_P2;PMS_P1;PMS_P2;Temp;Humidity;BMP_temperature;BMP_pressure;BME280_temperature;BME280_humidity;BME280_pressure;Samples;Min_cycle;Max_cycle;Signal;HPM_P1;HPM_P2
2020/12/12 00:01:09;;;;;;;2.87;2.67;;;;;;;0.01;87.15;95717.67;1737952;82;21060;-55
2020/12/12 00:03:36;;;;;;;3.55;2.83;;;;;;;-0.03;87.23;95721.26;1697845;82;21083;-56
2020/12/12 00:06:04;;;;;;;4.10;3.42;;;;;;;-0.11;87.27;95715.20;1723831;82;21131;-56
2020/12/12 00:08:32;;;;;;;4.12;3.10;;;;;;;-0.25;87.81;95720.05;1749516;81;21492;-55
2020/12/12 00:10:59;;;;;;;4.37;3.42;;;;;;;-0.25;87.81;95720.05;1726621;82;21445;-56
2020/12/12 00:13:27;;;;;;;4.12;3.72;;;;;;;-0.29;88.00;95719.34;1726190;82;21112;-55
2020/12/12 00:15:55;;;;;;;4.78;4.28;;;;;;;-0.26;88.16;95722.23;1745637;81;21075;-56
2020/12/12 00:18:22;;;;;;;5.72;3.52;;;;;;;-0.25;88.14;95720.05;1745834;81;21140;-56
2020/12/12 00:20:50;;;;;;;5.25;4.30;;;;;;;-0.40;88.40;95717.23;1726938;82;21085;-56
2020/12/12 00:23:17;;;;;;;4.42;4.03;;;;;;;-0.40;88.40;95717.23;1751169;81;21384;-55
2020/12/12 00:25:47;;;;;;;5.00;4.45;;;;;;;-0.37;88.65;95721.38;1749946;80;21640;-57
2020/12/12 00:28:16;;;;;;;5.12;4.28;;;;;;;-0.35;88.53;95727.23;1742946;81;21097;-56
2020/12/12 00:30:44;;;;;;;8.15;4.20;;;;;;;-0.35;88.53;95727.23;1735574;82;21608;-55
2020/12/12 00:33:14;;;;;;;7.70;4.20;;;;;;;-0.38;88.75;95720.56;1720722;83;21139;-56
2020/12/12 00:35:42;;;;;;;6.03;5.10;;;;;;;-0.37;88.76;95723.94;1746134;82;21543;-56
2020/12/12 00:38:10;;;;;;;9.55;5.00;;;;;;;-0.38;88.93;95726.94;1741008;82;21080;-55
2020/12/12 00:40:37;;;;;;;5.40;4.90;;;;;;;-0.33;88.78;95729.30;1750154;81;21067;-55
2020/12/12 00:43:05;;;;;;;5.83;4.83;;;;;;;-0.31;88.65;95729.21;1741869;82;21064;-55
2020/12/12 00:45:33;;;;;;;5.58;5.00;;;;;;;-0.30;88.65;95727.05;1737486;80;21132;-56
2020/12/12 00:48:01;;;;;;;8.00;4.72;;;;;;;-0.29;88.54;95714.70;1735963;80;22182;-56
2020/12/12 00:50:29;;;;;;;5.20;4.62;;;;;;;-0.35;88.50;95721.32;1731276;82;21099;-56
2020/12/12 00:52:57;;;;;;;5.22;4.65;;;;;;;-0.40;88.67;95707.48;1728508;81;21073;-56
2020/12/12 00:55:25;;;;;;;5.07;4.37;;;;;;;-0.38;88.86;95707.81;1740586;81;21093;-56
2020/12/12 00:57:53;;;;;;;8.07;5.63;;;;;;;-0.39;88.77;95711.25;1750574;82;21139;-56
2020/12/12 01:00:21;;;;;;;5.43;4.87;;;;;;;-0.38;88.67;95715.89;1738037;82;21266;-56
2020/12/12 01:02:49;;;;;;;6.17;4.80;;;;;;;-0.45;88.82;95712.77;1736447;82;21302;-56
2020/12/12 01:05:17;;;;;;;4.95;4.45;;;;;;;-0.45;88.82;95712.77;1748410;82;21068;-56
2020/12/12 01:07:44;;;;;;;7.50;5.20;;;;;;;-0.47;88.88;95708.64;1737432;81;21131;-56
2020/12/12 01:10:12;;;;;;;6.67;4.90;;;;;;;-0.47;88.96;95704.36;1749383;82;21116;-56
2020/12/12 01:12:39;;;;;;;5.20;4.33;;;;;;;-0.46;88.93;95711.13;1748057;81;21394;-56
2020/12/12 01:15:07;;;;;;;7.15;5.05;;;;;;;-0.50;88.96;95703.21;1743993;81;21128;-56
2020/12/12 01:17:34;;;;;;;5.00;4.50;;;;;;;-0.47;88.97;95712.01;1740261;82;21132;-56
2020/12/12 01:20:04;;;;;;;5.92;4.70;;;;;;;-0.47;88.97;95712.01;1736840;82;21152;-56
2020/12/12 01:22:32;;;;;;;6.10;5.40;;;;;;;-0.41;88.99;95707.12;1721868;82;21547;-56
2020/12/12 01:25:00;;;;;;;5.22;4.50;;;;;;;-0.41;88.83;95696.93;1732551;81;21177;-56
2020/12/12 01:27:28;;;;;;;6.10;4.80;;;;;;;-0.41;88.83;95696.93;1760327;80;21093;-55
2020/12/12 01:29:56;;;;;;;6.15;5.00;;;;;;;-0.43;88.80;95699.53;1745848;81;21071;-56
2020/12/12 01:32:24;;;;;;;6.85;5.22;;;;;;;-0.43;88.87;95694.44;1698042;83;21119;-56
2020/12/12 01:34:53;;;;;;;7.58;4.92;;;;;;;-0.42;88.66;95687.16;1744172;81;21143;-55
2020/12/12 01:37:22;;;;;;;5.45;4.62;;;;;;;-0.42;88.62;95692.71;1738663;81;21571;-55
2020/12/12 01:39:49;;;;;;;5.60;4.80;;;;;;;-0.40;88.67;95693.47;1755826;81;21096;-55
2020/12/12 01:42:17;;;;;;;4.80;4.30;;;;;;;-0.35;88.53;95688.19;1744120;80;21127;-55
2020/12/12 01:44:44;;;;;;;4.80;4.10;;;;;;;-0.33;88.11;95696.16;1755150;81;21574;-55
2020/12/12 01:47:12;;;;;;;4.60;3.92;;;;;;;-0.39;87.86;95694.68;1734841;81;21608;-55
2020/12/12 01:49:40;;;;;;;4.87;4.12;;;;;;;-0.44;87.88;95690.68;1746892;81;21217;-55
2020/12/12 01:52:08;;;;;;;5.92;4.28;;;;;;;-0.46;88.06;95693.29;1736957;81;21088;-55
2020/12/12 01:54:36;;;;;;;4.70;4.23;;;;;;;-0.39;88.00;95691.31;1743377;81;21491;-55
2020/12/12 01:57:04;;;;;;;5.37;4.47;;;;;;;-0.35;87.87;95689.45;1750449;81;21128;-55
2020/12/12 01:59:32;;;;;;;4.07;3.67;;;;;;;-0.35;87.87;95689.45;1720974;81;21140;-55
2020/12/12 02:02:00;;;;;;;4.08;3.72;;;;;;;-0.25;87.78;95686.47;1724628;81;21075;-55
2020/12/12 02:04:28;;;;;;;4.42;4.03;;;;;;;-0.22;87.45;95692.69;1720596;81;21072;-55
2020/12/12 02:06:56;;;;;;;4.62;4.03;;;;;;;-0.26;87.07;95686.08;1699424;83;21079;-55
2020/12/12 02:09:25;;;;;;;;;;;;;;;-0.30;87.16;95691.36;1743162;80;21059;-55
2020/12/12 02:11:52;;;;;;;4.37;3.92;;;;;;;-0.33;87.23;95694.04;1755637;81;20237;-55
2020/12/12 02:14:19;;;;;;;4.33;3.77;;;;;;;-0.31;87.46;95683.33;1752802;80;21619;-55
2020/12/12 02:16:53;;;;;;;4.25;3.83;;;;;;;-0.31;87.46;95683.33;1732362;81;21110;-55
2020/12/12 02:19:23;;;;;;;4.58;3.92;;;;;;;-0.33;87.56;95678.75;1734601;81;21148;-55
2020/12/12 02:21:57;;;;;;;3.98;3.52;;;;;;;-0.30;87.17;95680.71;1745947;80;21163;-55
2020/12/12 02:24:25;;;;;;;7.15;4.53;;;;;;;-0.31;87.23;95680.35;1734231;81;21560;-55
2020/12/12 02:26:53;;;;;;;4.65;4.10;;;;;;;-0.32;87.00;95685.05;1758405;81;21193;-56
2020/12/12 02:29:21;;;;;;;5.83;4.40;;;;;;;-0.39;87.06;95688.77;1745441;81;21179;-55
2020/12/12 02:31:48;;;;;;;4.92;4.20;;;;;;;-0.42;87.30;95683.79;1742954;81;21074;-55
2020/12/12 02:34:16;;;;;;;5.35;4.47;;;;;;;-0.44;87.44;95685.58;1712277;82;21156;-55
2020/12/12 02:36:44;;;;;;;5.42;4.87;;;;;;;-0.44;87.57;95688.13;1758015;81;21127;-55
2020/12/12 02:39:14;;;;;;;6.35;5.35;;;;;;;-0.39;87.46;95688.31;1753729;81;21195;-55
2020/12/12 02:41:41;;;;;;;;;;;;;;;-0.42;87.38;95686.34;1751101;81;21135;-55
2020/12/12 02:44:09;;;;;;;5.77;4.63;;;;;;;-0.46;87.65;95684.80;1763073;81;20220;-55
2020/12/12 02:46:37;;;;;;;7.00;5.35;;;;;;;-0.52;87.98;95688.89;1716796;81;21079;-55
2020/12/12 02:49:05;;;;;;;6.42;5.30;;;;;;;-0.52;87.98;95688.89;1765390;81;21060;-55
2020/12/12 02:51:32;;;;;;;6.53;5.17;;;;;;;-0.50;88.03;95681.55;1736979;82;21126;-55
2020/12/12 02:54:00;;;;;;;5.85;4.58;;;;;;;-0.50;88.00;95683.28;1735216;82;21222;-55
2020/12/12 02:56:27;;;;;;;5.53;4.80;;;;;;;-0.52;88.10;95688.44;1765954;81;21115;-55
2020/12/12 02:58:55;;;;;;;6.83;5.00;;;;;;;-0.49;88.08;95677.30;1688142;82;21880;-55
2020/12/12 03:01:23;;;;;;;5.97;5.03;;;;;;;-0.41;87.83;95678.63;1748389;81;21595;-56
2020/12/12 03:03:51;;;;;;;6.58;5.12;;;;;;;-0.41;87.83;95678.63;1706018;84;21384;-55
2020/12/12 03:06:19;;;;;;;5.53;4.97;;;;;;;-0.39;87.76;95678.56;1733454;82;21577;-55
2020/12/12 03:08:47;;;;;;;6.60;5.55;;;;;;;-0.40;87.74;95679.00;1767292;80;21072;-56
2020/12/12 03:11:15;;;;;;;6.60;5.35;;;;;;;-0.46;87.85;95678.42;1767044;79;21077;-56
2020/12/12 03:13:42;;;;;;;5.12;4.62;;;;;;;-0.47;88.02;95680.61;1764471;80;21120;-55
2020/12/12 03:16:10;;;;;;;7.12;5.72;;;;;;;-0.44;87.96;95683.85;1747357;81;21208;-55
2020/12/12 03:18:38;;;;;;;7.67;5.50;;;;;;;-0.46;87.95;95674.60;1756743;81;21095;-55
2020/12/12 03:21:06;;;;;;;8.13;5.90;;;;;;;-0.51;88.07;95682.46;1736369;82;21062;-55
2020/12/12 03:23:34;;;;;;;8.80;6.20;;;;;;;-0.56;88.08;95680.09;1722421;82;21164;-55
2020/12/12 03:26:02;;;;;;;6.67;5.20;;;;;;;-0.49;88.35;95674.75;1744056;81;23014;-55
2020/12/12 03:28:30;;;;;;;7.75;5.92;;;;;;;-0.39;88.08;95678.56;1730623;81;21549;-55
2020/12/12 03:30:57;;;;;;;10.15;5.50;;;;;;;-0.40;87.90;95682.81;1735093;82;21080;-56
2020/12/12 03:33:25;;;;;;;6.95;5.30;;;;;;;-0.41;87.78;95684.19;1749490;82;21064;-55
2020/12/12 03:35:53;;;;;;;5.33;4.67;;;;;;;-0.46;87.82;95688.62;1743416;80;21139;-56
2020/12/12 03:38:21;;;;;;;5.60;4.60;;;;;;;-0.47;87.90;95686.98;1746678;81;21534;-55
2020/12/12 03:40:49;;;;;;;5.28;4.60;;;;;;;-0.48;87.76;95678.48;1750068;80;21083;-55
2020/12/12 03:43:17;;;;;;;22.05;5.90;;;;;;;-0.52;87.86;95675.70;1749827;81;21214;-55
2020/12/12 03:45:45;;;;;;;9.93;5.10;;;;;;;-0.60;88.11;95686.19;1735896;82;21163;-55
2020/12/12 03:48:12;;;;;;;12.50;5.15;;;;;;;-0.64;88.38;95676.19;1720710;83;21138;-56
2020/12/12 03:50:40;;;;;;;24.52;6.67;;;;;;;-0.65;88.63;95679.64;1741210;82;21147;-56
2020/12/12 03:53:08;;;;;;;29.57;7.47;;;;;;;-0.64;88.71;95685.95;1748512;81;23606;-56
2020/12/12 03:55:36;;;;;;;6.65;4.90;;;;;;;-0.57;88.90;95681.43;1721466;82;21222;-56
2020/12/12 03:58:04;;;;;;;9.60;4.72;;;;;;;-0.47;88.28;95682.70;1731868;80;21155;-55
2020/12/12 04:00:31;;;;;;;9.93;4.90;;;;;;;-0.50;88.24;95679.00;1737381;80;21603;-55
2020/12/12 04:03:00;;;;;;;47.05;7.33;;;;;;;-0.53;88.20;95679.58;1720889;82;21068;-55
2020/12/12 04:05:27;;;;;;;8.88;4.72;;;;;;;-0.55;88.32;95684.73;1723914;82;22665;-55
2020/12/12 04:07:55;;;;;;;10.68;5.28;;;;;;;-0.54;88.43;95674.94;1746739;82;21133;-55
2020/12/12 04:10:23;;;;;;;9.05;4.92;;;;;;;-0.52;88.35;95676.97;1749001;81;21144;-55
2020/12/12 04:12:51;;;;;;;8.83;5.22;;;;;;;-0.53;88.23;95670.66;1749207;81;21140;-54
2020/12/12 04:15:19;;;;;;;11.78;5.90;;;;;;;-0.58;88.30;95678.06;1742382;81;21071;-56
2020/12/12 04:17:46;;;;;;;7.22;4.75;;;;;;;-0.59;88.47;95673.84;1750565;81;21855;-54
2020/12/12 04:20:14;;;;;;;3.95;3.58;;;;;;;-0.54;88.55;95669.84;1734647;80;21147;-55
2020/12/12 04:22:42;;;;;;;7.37;5.05;;;;;;;-0.57;88.44;95656.77;1744402;81;21231;-54
2020/12/12 04:25:09;;;;;;;6.80;4.45;;;;;;;-0.64;88.51;95670.66;1732568;81;21072;-54
2020/12/12 04:27:37;;;;;;;4.67;4.22;;;;;;;-0.68;88.87;95665.30;1738135;80;21040;-55
2020/12/12 04:30:05;;;;;;;5.70;5.10;;;;;;;-0.67;89.02;95673.34;1736140;81;21184;-55
2020/12/12 04:32:34;;;;;;;;;;;;;;;-0.70;88.97;95664.54;1727752;81;21642;-55
2020/12/12 04:35:02;;;;;;;7.78;5.80;;;;;;;-0.71;89.14;95670.97;1753100;81;20232;-55
2020/12/12 04:37:30;;;;;;;8.30;5.22;;;;;;;-0.71;89.18;95670.52;1734175;81;21174;-55
2020/12/12 04:39:58;;;;;;;6.15;4.47;;;;;;;-0.67;89.22;95676.34;1709820;83;21071;-55
2020/12/12 04:42:26;;;;;;;10.18;6.25;;;;;;;-0.66;89.21;95673.73;1710250;83;21402;-55
2020/12/12 04:44:54;;;;;;;11.20;4.95;;;;;;;-0.62;89.12;95668.88;1707356;83;21152;-55
2020/12/12 04:47:22;;;;;;;8.33;5.53;;;;;;;-0.57;89.11;95668.23;1681901;83;21604;-55
2020/12/12 04:49:50;;;;;;;7.90;4.95;;;;;;;-0.54;88.86;95666.02;1702436;83;21529;-56
2020/12/12 04:52:18;;;;;;;9.73;4.78;;;;;;;-0.53;88.79;95673.21;1682882;85;21080;-55
2020/12/12 04:54:47;;;;;;;8.13;5.43;;;;;;;-0.54;88.70;95683.01;1701757;83;21340;-55
2020/12/12 04:57:14;;;;;;;6.55;5.25;;;;;;;-0.56;88.59;95683.06;1692147;83;22155;-55
2020/12/12 04:59:44;;;;;;;11.12;5.17;;;;;;;-0.61;88.67;95676.91;1691238;83;21175;-56
2020/12/12 05:02:13;;;;;;;12.07;5.30;;;;;;;-0.68;88.84;95678.48;1685923;83;21176;-55
2020/12/12 05:04:41;;;;;;;7.75;4.92;;;;;;;-0.73;89.08;95679.13;1691939;83;21187;-56
2020/12/12 05:07:09;;;;;;;8.65;5.55;;;;;;;-0.75;89.24;95680.00;1711799;83;21213;-55
2020/12/12 05:09:37;;;;;;;11.10;5.65;;;;;;;-0.64;89.44;95678.31;1699488;83;21103;-55
2020/12/12 05:12:05;;;;;;;10.58;5.22;;;;;;;-0.58;88.51;95675.52;1683580;85;21164;-56
2020/12/12 05:14:32;;;;;;;6.60;5.50;;;;;;;-0.58;88.51;95675.52;1682489;83;21147;-56
2020/12/12 05:17:00;;;;;;;7.22;4.97;;;;;;;-0.61;88.78;95678.19;1708356;83;21084;-55
2020/12/12 05:19:28;;;;;;;8.25;4.92;;;;;;;-0.65;88.83;95684.73;1658157;85;21166;-55
2020/12/12 05:21:56;;;;;;;10.90;5.92;;;;;;;-0.65;89.03;95682.19;1669686;83;21765;-55
2020/12/12 05:24:26;;;;;;;11.10;5.53;;;;;;;-0.68;88.76;95687.41;1664218;83;21135;-55
2020/12/12 05:26:59;;;;;;;10.95;6.40;;;;;;;-0.77;89.02;95687.34;1711312;82;21152;-54
2020/12/12 05:29:26;;;;;;;6.42;5.10;;;;;;;-0.83;89.22;95688.85;1721764;82;21088;-55
2020/12/12 05:31:57;;;;;;;10.85;5.17;;;;;;;-0.81;89.56;95681.97;1742987;81;22056;-55
2020/12/12 05:34:25;;;;;;;13.38;5.55;;;;;;;-0.76;89.48;95677.09;1705091;82;21639;-54
2020/12/12 05:36:55;;;;;;;7.05;5.33;;;;;;;-0.76;89.26;95683.46;1748177;82;21229;-54
2020/12/12 05:39:23;;;;;;;5.40;4.90;;;;;;;-0.78;89.32;95689.49;1748006;82;21144;-55
2020/12/12 05:41:51;;;;;;;10.68;5.62;;;;;;;-0.75;89.42;95685.09;1726121;82;21171;-55
2020/12/12 05:44:19;;;;;;;;;;;;;;;-0.76;89.27;95684.73;1736301;82;21377;-55
2020/12/12 05:46:47;;;;;;;6.45;5.70;;;;;;;-0.83;89.33;95696.49;1744939;82;20492;-55
2020/12/12 05:49:15;;;;;;;5.85;5.22;;;;;;;-0.85;89.52;95697.83;1737918;81;21084;-55
2020/12/12 05:51:43;;;;;;;6.00;5.40;;;;;;;-0.83;89.64;95692.67;1721486;83;21147;-55
2020/12/12 05:54:10;;;;;;;7.05;5.53;;;;;;;-0.83;89.62;95697.77;1733239;82;21056;-54
2020/12/12 05:56:38;;;;;;;13.98;5.17;;;;;;;-0.84;89.56;95698.64;1699274;83;21237;-56
2020/12/12 05:59:06;;;;;;;23.77;7.57;;;;;;;-0.84;89.71;95698.22;1738853;81;21075;-55
2020/12/12 06:01:33;;;;;;;6.70;5.60;;;;;;;-0.82;89.75;95697.70;1731779;82;21125;-55
2020/12/12 06:04:09;;;;;;;6.95;5.87;;;;;;;-0.78;89.82;95694.59;1739760;81;21196;-56
2020/12/12 06:06:45;;;;;;;8.40;5.60;;;;;;;-0.77;89.49;95690.70;1724373;82;21881;-55
2020/12/12 06:09:15;;;;;;;7.80;5.17;;;;;;;-0.81;89.53;95693.44;1725981;82;21223;-55
2020/12/12 06:11:44;;;;;;;9.55;5.33;;;;;;;-0.86;89.61;95701.25;1740381;82;21140;-56
2020/12/12 06:14:13;;;;;;;17.82;6.62;;;;;;;-0.89;89.73;95705.64;1716320;82;21160;-55
2020/12/12 06:16:41;;;;;;;9.08;4.50;;;;;;;-0.91;89.93;95706.98;1737731;81;21205;-56
2020/12/12 06:19:14;;;;;;;14.65;6.22;;;;;;;-0.89;89.98;95700.55;1729811;81;21092;-56
2020/12/12 06:21:47;;;;;;;8.65;5.70;;;;;;;-0.85;89.99;95709.28;1742297;82;22345;-56
2020/12/12 06:24:18;;;;;;;8.33;5.05;;;;;;;-0.85;89.81;95707.19;1741874;81;21115;-55
2020/12/12 06:27:01;;;;;;;11.63;5.25;;;;;;;-0.85;89.91;95709.28;1736564;82;21092;-55
2020/12/12 06:29:32;;;;;;;10.08;5.97;;;;;;;-0.82;89.91;95712.17;1722558;81;21076;-56
2020/12/12 06:31:59;;;;;;;10.65;6.00;;;;;;;-0.81;89.92;95706.17;1746222;82;21104;-56
2020/12/12 06:34:43;;;;;;;9.28;6.00;;;;;;;-0.82;89.74;95705.35;1738330;82;21364;-56
2020/12/12 06:37:31;;;;;;;7.72;5.50;;;;;;;-0.87;89.79;95700.03;1735402;82;21198;-55
2020/12/12 06:40:04;;;;;;;11.78;6.37;;;;;;;-0.91;89.96;95695.52;1748691;81;21457;-56
2020/12/12 06:42:45;;;;;;;17.73;6.45;;;;;;;-0.91;90.05;95698.52;1750341;82;21127;-56
2020/12/12 06:45:22;;;;;;;14.73;6.72;;;;;;;-0.93;90.09;95690.94;1748947;80;21151;-56
2020/12/12 06:47:53;;;;;;;11.90;6.10;;;;;;;-0.86;90.28;95693.61;1733017;81;21380;-56
2020/12/12 06:50:33;;;;;;;8.55;5.87;;;;;;;-0.82;89.92;95690.52;1751674;81;21564;-55
2020/12/12 06:53:02;;;;;;;10.70;5.37;;;;;;;-0.91;89.95;95700.61;1738079;81;28540;-56
2020/12/12 06:55:30;;;;;;;6.62;5.50;;;;;;;-0.93;90.28;95701.13;1684859;82;21085;-55
2020/12/12 06:57:58;;;;;;;6.23;5.60;;;;;;;-0.93;90.28;95701.13;1731894;82;21046;-56
2020/12/12 07:00:34;;;;;;;7.62;5.45;;;;;;;-0.94;90.26;95701.58;1722409;81;21426;-57
2020/12/12 07:03:04;;;;;;;9.78;5.85;;;;;;;-0.96;90.35;95697.42;1696601;83;21175;-56
2020/12/12 07:05:34;;;;;;;9.03;6.72;;;;;;;-0.96;90.41;95708.88;1721482;82;21127;-56
2020/12/12 07:08:05;;;;;;;8.38;5.28;;;;;;;-0.95;90.48;95702.45;1726671;82;21135;-55
2020/12/12 07:10:33;;;;;;;10.72;5.33;;;;;;;-0.86;90.52;95710.63;1701513;82;21135;-56
2020/12/12 07:13:02;;;;;;;9.30;7.50;;;;;;;-0.84;90.16;95708.83;1750422;82;21198;-55
2020/12/12 07:15:33;;;;;;;7.80;6.47;;;;;;;-0.88;89.92;95700.48;1729569;82;21203;-58
2020/12/12 07:18:10;;;;;;;6.33;5.35;;;;;;;-0.85;90.21;95707.19;1741981;82;21162;-56
2020/12/12 07:20:40;;;;;;;17.05;6.53;;;;;;;-0.84;89.97;95704.59;1719647;83;21082;-57
2020/12/12 07:23:07;;;;;;;13.62;6.40;;;;;;;-0.84;90.06;95702.04;1750427;82;21088;-55
2020/12/12 07:25:35;;;;;;;13.18;6.10;;;;;;;-0.83;89.97;95704.95;1750625;82;21274;-55
2020/12/12 07:28:04;;;;;;;7.50;6.40;;;;;;;-0.82;89.82;95702.80;1752069;81;21579;-56
2020/12/12 07:30:33;;;;;;;9.03;6.22;;;;;;;-0.86;89.82;95710.16;1734684;81;21116;-57
2020/12/12 07:33:02;;;;;;;12.68;7.03;;;;;;;-0.83;90.10;95712.59;1765164;80;24738;-56
2020/12/12 07:35:32;;;;;;;13.72;6.47;;;;;;;-0.80;89.86;95711.66;1737294;82;21069;-56
2020/12/12 07:38:06;;;;;;;12.43;5.87;;;;;;;-0.82;89.86;95704.08;1747563;81;22891;-55
2020/12/12 07:40:35;;;;;;;6.95;6.12;;;;;;;-0.81;89.89;95708.27;1741552;81;21213;-56
2020/12/12 07:43:07;;;;;;;10.30;6.47;;;;;;;-0.78;89.99;95709.41;1767669;81;21100;-55
2020/12/12 07:48:11;;;;;;;8.05;6.42;;;;;;;-0.68;89.88;95708.61;1752734;80;21056;-56
2020/12/12 07:50:39;;;;;;;9.08;6.87;;;;;;;-0.63;89.47;95710.98;1706239;83;23621;-55
2020/12/12 07:53:12;;;;;;;11.63;7.08;;;;;;;-0.68;89.40;95716.70;1737731;80;21069;-56
2020/12/12 07:55:46;;;;;;;24.20;8.05;;;;;;;-0.71;89.64;95715.09;1767376;81;21060;-56
2020/12/12 07:58:19;;;;;;;15.28;6.67;;;;;;;-0.67;89.64;95710.73;1723075;82;21124;-56
2020/12/12 08:01:01;;;;;;;13.35;7.17;;;;;;;-0.65;89.44;95714.86;1747138;81;21033;-56
2020/12/12 08:03:44;;;;;;;11.47;7.10;;;;;;;-0.60;89.63;95719.31;1887777;75;22690;-56
2020/12/12 08:06:11;;;;;;;10.20;6.60;;;;;;;-0.63;89.33;95718.16;1828712;77;21100;-55
2020/12/12 08:08:39;;;;;;;10.35;7.70;;;;;;;-0.69;89.36;95725.22;1816530;79;21580;-56
2020/12/12 08:11:07;;;;;;;8.95;6.78;;;;;;;-0.76;89.44;95725.49;1816634;79;21279;-56
2020/12/12 08:13:35;;;;;;;15.08;6.70;;;;;;;-0.76;89.71;95725.49;1826669;77;20898;-56
2020/12/12 08:18:43;;;;;;;8.48;6.05;;;;;;;-0.78;89.75;95721.33;1838666;77;20208;-55
2020/12/12 08:21:16;;;;;;;10.08;7.12;;;;;;;-0.73;90.02;95720.70;1812315;77;21492;-56
2020/12/12 08:23:46;;;;;;;12.37;6.45;;;;;;;-0.73;89.62;95723.70;1821628;77;21481;-56
2020/12/12 08:26:20;;;;;;;10.03;7.78;;;;;;;-0.80;89.78;95730.31;1831878;77;21068;-56
2020/12/12 08:28:49;;;;;;;14.03;7.42;;;;;;;-0.83;89.86;95722.78;1819049;77;21181;-56
2020/12/12 08:31:21;;;;;;;11.83;7.97;;;;;;;-0.82;89.99;95724.91;1827520;77;21030;-56
2020/12/12 08:33:56;;;;;;;14.18;8.43;;;;;;;-0.81;90.06;95731.19;1820665;77;21370;-55
2020/12/12 08:36:28;;;;;;;18.67;7.70;;;;;;;-0.81;89.92;95729.09;1822453;77;21065;-55
2020/12/12 08:39:03;;;;;;;12.58;8.40;;;;;;;-0.87;90.09;95722.53;1800454;79;21113;-56
2020/12/12 08:41:36;;;;;;;11.18;7.35;;;;;;;-0.87;90.18;95716.59;1816476;79;20997;-56
2020/12/12 08:44:04;;;;;;;16.10;7.30;;;;;;;-0.80;90.39;95709.11;1833735;77;21041;-56
2020/12/12 08:46:33;;;;;;;16.82;8.80;;;;;;;-0.73;90.02;95714.79;1822816;77;21367;-56
2020/12/12 08:49:01;;;;;;;9.40;7.10;;;;;;;-0.80;89.93;95706.11;1808867;79;21544;-56
2020/12/12 08:51:30;;;;;;;10.00;7.12;;;;;;;-0.83;89.99;95715.59;1769220;80;21078;-56
2020/12/12 08:54:00;;;;;;;11.57;7.40;;;;;;;-0.90;90.13;95708.64;1775676;79;21184;-56
2020/12/12 08:56:29;;;;;;;9.10;7.10;;;;;;;-0.92;90.33;95709.16;1779155;79;21156;-56
2020/12/12 08:59:06;;;;;;;19.23;7.95;;;;;;;-0.90;90.50;95707.83;1779530;80;21200;-57
2020/12/12 09:01:42;;;;;;;11.83;7.72;;;;;;;-0.86;90.45;95707.62;1783068;79;21065;-56
2020/12/12 09:04:15;;;;;;;11.60;8.23;;;;;;;-0.82;90.48;95710.44;1795838;79;21119;-57
2020/12/12 09:06:54;;;;;;;13.48;7.40;;;;;;;-0.81;90.30;95712.08;1804738;79;21482;-56
2020/12/12 09:09:29;;;;;;;14.83;8.40;;;;;;;-0.81;90.36;95707.44;1810011;79;21546;-56
2020/12/12 09:12:10;;;;;;;9.80;7.10;;;;;;;-0.84;90.29;95707.14;1774270;79;21369;-56
2020/12/12 09:14:44;;;;;;;15.85;7.28;;;;;;;-0.84;90.35;95708.41;1760895;80;21180;-56
2020/12/12 09:17:14;;;;;;;16.80;7.92;;;;;;;-0.87;90.30;95703.43;1754769;80;21510;-57
2020/12/12 09:19:42;;;;;;;15.72;7.97;;;;;;;-0.92;90.50;95706.61;1761944;79;21153;-56
2020/12/12 09:22:11;;;;;;;11.20;8.38;;;;;;;-0.94;90.69;95694.36;1809276;79;21533;-57
2020/12/12 09:24:39;;;;;;;;;;;;;;;-0.91;90.88;95698.52;1811670;79;21195;-56
2020/12/12 09:27:08;;;;;;;21.23;7.80;;;;;;;-0.86;90.85;95698.70;1809007;78;20113;-56
2020/12/12 09:29:38;;;;;;;15.98;7.75;;;;;;;-0.85;90.68;95696.55;1785199;79;21629;-55
2020/12/12 09:32:06;;;;;;;15.53;8.58;;;;;;;-0.85;90.65;95700.83;1809441;78;21045;-55
2020/12/12 09:34:37;;;;;;;11.85;8.25;;;;;;;-0.87;90.62;95697.06;1784454;78;21494;-57
2020/12/12 09:37:04;;;;;;;16.93;7.65;;;;;;;-0.88;90.71;95692.84;1777401;80;21347;-57
2020/12/12 09:39:32;;;;;;;13.95;7.10;;;;;;;-0.86;90.65;95690.24;1777942;79;21486;-55
2020/12/12 09:42:00;;;;;;;11.10;7.50;;;;;;;-0.86;90.61;95689.79;1768044;79;21133;-56
2020/12/12 09:44:28;;;;;;;16.75;8.35;;;;;;;-0.83;90.69;95687.58;1809416;79;21156;-55
2020/12/12 09:46:56;;;;;;;11.08;8.43;;;;;;;-0.75;90.79;95683.83;1806116;78;21085;-57
2020/12/12 09:49:24;;;;;;;11.55;8.18;;;;;;;-0.67;90.65;95687.34;1809248;79;22710;-56
2020/12/12 09:51:52;;;;;;;11.05;8.23;;;;;;;-0.63;90.40;95684.22;1785654;79;21573;-56
2020/12/12 09:54:19;;;;;;;13.93;7.83;;;;;;;-0.63;90.04;95681.67;1778233;79;21129;-56
2020/12/12 09:56:49;;;;;;;9.38;7.22;;;;;;;-0.62;90.24;95687.16;1803373;79;21616;-57
2020/12/12 09:59:17;;;;;;;13.50;7.78;;;;;;;-0.65;89.96;95683.46;1784581;79;21057;-55
2020/12/12 10:01:47;;;;;;;14.60;8.05;;;;;;;-0.68;90.11;95685.67;1789370;79;21186;-55
2020/12/12 10:04:16;;;;;;;18.77;8.28;;;;;;;-0.68;90.06;95684.41;1760731;80;21090;-57
2020/12/12 10:06:44;;;;;;;;;;;;;;;-0.69;90.14;95683.19;1793610;80;21078;-57
2020/12/12 10:09:11;;;;;;;13.68;8.10;;;;;;;-0.70;90.12;95673.91;1790930;80;20226;-55
2020/12/12 10:11:41;;;;;;;13.70;7.87;;;;;;;-0.66;90.31;95672.88;1790965;80;21098;-57
2020/12/12 10:14:10;;;;;;;23.45;8.98;;;;;;;-0.61;90.31;95678.19;1791037;79;21357;-55
2020/12/12 10:16:39;;;;;;;12.28;8.25;;;;;;;-0.61;90.08;95676.06;1796781;79;21160;-55
2020/12/12 10:19:07;;;;;;;13.70;8.48;;;;;;;-0.57;90.20;95667.42;1798675;79;21055;-56
2020/12/12 10:21:36;;;;;;;17.52;9.43;;;;;;;-0.51;90.12;95667.59;1791410;79;21491;-56
2020/12/12 10:24:03;;;;;;;10.88;7.75;;;;;;;-0.43;90.08;95661.31;1790799;79;21486;-55
2020/12/12 10:26:31;;;;;;;12.10;8.15;;;;;;;-0.43;89.46;95668.11;1794177;79;21950;-56
2020/12/12 10:28:58;;;;;;;13.13;8.20;;;;;;;-0.43;89.47;95670.66;1805203;79;21593;-56
2020/12/12 10:31:27;;;;;;;;;;;;;;;-0.43;89.47;95670.66;1811794;79;21165;-55
2020/12/12 10:33:55;;;;;;;22.02;8.45;;;;;;;-0.47;89.35;95675.05;1777361;80;20239;-56
2020/12/12 10:36:25;;;;;;;10.10;7.55;;;;;;;-0.50;89.38;95669.27;1776953;80;21076;-56
2020/12/12 10:38:53;;;;;;;12.93;8.93;;;;;;;-0.52;89.47;95664.69;1782899;79;22623;-56
2020/12/12 10:41:22;;;;;;;21.07;7.90;;;;;;;-0.54;89.51;95664.75;1778209;79;21546;-55
2020/12/12 10:43:50;;;;;;;14.95;7.80;;;;;;;-0.48;89.52;95668.75;1809300;79;21093;-56
2020/12/12 10:46:18;;;;;;;14.07;8.50;;;;;;;-0.48;89.48;95670.02;1809440;78;21184;-56
2020/12/12 10:48:47;;;;;;;10.13;7.08;;;;;;;-0.51;89.06;95666.32;1808197;79;21073;-56
2020/12/12 10:51:17;;;;;;;;;;;;;;;-0.51;89.06;95666.32;1761074;81;21507;-56
2020/12/12 10:53:45;;;;;;;11.03;8.00;;;;;;;-0.59;89.33;95669.20;1734399;82;20295;-55
2020/12/12 10:56:13;;;;;;;10.40;7.60;;;;;;;-0.64;89.57;95669.39;1724396;82;21498;-55
2020/12/12 10:58:41;;;;;;;8.98;6.72;;;;;;;-0.60;89.86;95665.81;1735467;82;21132;-56
2020/12/12 11:01:10;;;;;;;11.38;7.60;;;;;;;-0.54;89.66;95663.90;1721008;82;21145;-56
2020/12/12 11:03:38;;;;;;;11.40;7.62;;;;;;;-0.54;89.72;95665.17;1735458;81;21985;-56
2020/12/12 11:06:06;;;;;;;18.95;8.73;;;;;;;-0.47;89.87;95666.59;1738127;82;21182;-55
2020/12/12 11:08:36;;;;;;;16.73;8.73;;;;;;;-0.45;89.19;95671.98;1738575;82;21090;-56
2020/12/12 11:11:04;;;;;;;16.05;7.92;;;;;;;-0.45;89.19;95671.98;1740032;82;21507;-57
2020/12/12 11:13:32;;;;;;;11.40;7.12;;;;;;;-0.56;89.46;95662.26;1730492;81;21112;-55
2020/12/12 11:16:01;;;;;;;9.65;7.47;;;;;;;-0.56;89.46;95662.26;1760509;81;21443;-56
2020/12/12 11:18:30;;;;;;;16.73;8.13;;;;;;;-0.62;89.60;95656.59;1763208;81;21148;-56
2020/12/12 11:20:57;;;;;;;8.80;6.97;;;;;;;-0.69;89.96;95661.11;1785374;79;21064;-56
2020/12/12 11:23:25;;;;;;;10.85;7.15;;;;;;;-0.69;90.27;95661.11;1811588;79;21118;-56
2020/12/12 11:25:55;;;;;;;10.78;7.42;;;;;;;-0.58;90.40;95657.68;1814352;79;21029;-56
2020/12/12 11:28:23;;;;;;;16.10;9.75;;;;;;;-0.48;90.10;95659.83;1783623;79;21192;-56
2020/12/12 11:30:54;;;;;;;11.78;7.40;;;;;;;-0.42;90.04;95660.85;1799958;79;21089;-56
2020/12/12 11:33:22;;;;;;;14.25;8.23;;;;;;;-0.30;89.92;95661.59;1803495;79;21493;-55
2020/12/12 11:48:52;;;;;;;16.62;7.85;;;;;;;-0.35;88.80;95658.88;1780439;80;21062;-56
2020/12/12 11:51:20;;;;;;;14.85;7.78;;;;;;;-0.41;88.90;95664.61;1749653;81;21075;-56
2020/12/12 11:53:49;;;;;;;8.28;6.62;;;;;;;-0.48;89.03;95665.74;1753657;81;21076;-56
2020/12/12 11:56:23;;;;;;;12.03;7.53;;;;;;;-0.48;89.25;95671.30;1753600;81;21362;-56
2020/12/12 11:58:51;;;;;;;21.30;8.10;;;;;;;-0.49;89.27;95674.75;1762653;81;21186;-56